sensor_id;sensor_type;location;lat;lon;timestamp;P1;durP1;ratioP1;P2;durP2;ratioP2
66145;SDS011;52948;60.040;30.320;2024-01-11T00:04:05;0.30;;;0.30;;
66145;SDS011;52948;60.040;30.320;2024-01-11T00:09:07;0.35;;;0.35;;
66145;SDS011;52948;60.040;30.320;2024-01-11T00:14:10;0.52;;;0.30;;
66145;SDS011;52948;60.040;30.320;2024-01-11T00:19:12;2.22;;;0.40;;
66145;SDS011;52948;60.040;30.320;2024-01-11T00:24:17;0.32;;;0.30;;
66145;SDS011;52948;60.040;30.320;2024-01-11T00:29:20;0.20;;;0.20;;
66145;SDS011;52948;60.040;30.320;2024-01-11T00:34:22;0.47;;;0.40;;
66145;SDS011;52948;60.040;30.320;2024-01-11T00:39:24;0.43;;;0.43;;
66145;SDS011;52948;60.040;30.320;2024-01-11T00:44:27;0.52;;;0.40;;
66145;SDS011;52948;60.040;30.320;2024-01-11T00:49:29;0.35;;;0.35;;
66145;SDS011;52948;60.040;30.320;2024-01-11T00:54:31;0.47;;;0.47;;
66145;SDS011;52948;60.040;30.320;2024-01-11T00:59:34;2.20;;;0.57;;
66145;SDS011;52948;60.040;30.320;2024-01-11T01:04:37;0.20;;;0.20;;
66145;SDS011;52948;60.040;30.320;2024-01-11T01:09:40;0.40;;;0.30;;
66145;SDS011;52948;60.040;30.320;2024-01-11T01:14:43;2.47;;;0.63;;
66145;SDS011;52948;60.040;30.320;2024-01-11T01:19:45;0.20;;;0.20;;
66145;SDS011;52948;60.040;30.320;2024-01-11T01:24:48;0.35;;;0.35;;
66145;SDS011;52948;60.040;30.320;2024-01-11T01:29:50;0.30;;;0.30;;
66145;SDS011;52948;60.040;30.320;2024-01-11T01:34:52;0.20;;;0.20;;
66145;SDS011;52948;60.040;30.320;2024-01-11T01:39:54;0.43;;;0.30;;
66145;SDS011;52948;60.040;30.320;2024-01-11T01:44:57;1.08;;;0.70;;
66145;SDS011;52948;60.040;30.320;2024-01-11T01:50:00;0.77;;;0.40;;
66145;SDS011;52948;60.040;30.320;2024-01-11T01:55:02;0.25;;;0.25;;
66145;SDS011;52948;60.040;30.320;2024-01-11T02:00:08;0.20;;;0.20;;
66145;SDS011;52948;60.040;30.320;2024-01-11T02:05:14;0.10;;;0.10;;
66145;SDS011;52948;60.040;30.320;2024-01-11T02:10:18;0.10;;;0.10;;
66145;SDS011;52948;60.040;30.320;2024-01-11T02:15:21;0.43;;;0.40;;
66145;SDS011;52948;60.040;30.320;2024-01-11T02:20:23;0.20;;;0.20;;
66145;SDS011;52948;60.040;30.320;2024-01-11T02:25:26;0.20;;;0.20;;
66145;SDS011;52948;60.040;30.320;2024-01-11T02:30:29;0.17;;;0.17;;
66145;SDS011;52948;60.040;30.320;2024-01-11T02:35:32;0.03;;;0.03;;
66145;SDS011;52948;60.040;30.320;2024-01-11T02:40:37;0.10;;;0.10;;
66145;SDS011;52948;60.040;30.320;2024-01-11T02:45:39;0.10;;;0.10;;
66145;SDS011;52948;60.040;30.320;2024-01-11T02:50:41;0.15;;;0.15;;
66145;SDS011;52948;60.040;30.320;2024-01-11T02:55:44;0.15;;;0.15;;
66145;SDS011;52948;60.040;30.320;2024-01-11T03:00:50;0.20;;;0.20;;
66145;SDS011;52948;60.040;30.320;2024-01-11T03:05:53;0.30;;;0.30;;
66145;SDS011;52948;60.040;30.320;2024-01-11T03:10:56;0.20;;;0.20;;
66145;SDS011;52948;60.040;30.320;2024-01-11T03:15:58;0.63;;;0.32;;
66145;SDS011;52948;60.040;30.320;2024-01-11T03:21:00;0.47;;;0.40;;
66145;SDS011;52948;60.040;30.320;2024-01-11T03:26:03;1.55;;;0.35;;
66145;SDS011;52948;60.040;30.320;2024-01-11T03:31:05;0.22;;;0.17;;
66145;SDS011;52948;60.040;30.320;2024-01-11T03:36:09;0.17;;;0.17;;
66145;SDS011;52948;60.040;30.320;2024-01-11T03:41:13;0.15;;;0.15;;
66145;SDS011;52948;60.040;30.320;2024-01-11T03:46:16;0.75;;;0.30;;
66145;SDS011;52948;60.040;30.320;2024-01-11T03:51:18;0.47;;;0.30;;
66145;SDS011;52948;60.040;30.320;2024-01-11T03:56:23;0.30;;;0.30;;
66145;SDS011;52948;60.040;30.320;2024-01-11T04:01:26;0.55;;;0.50;;
66145;SDS011;52948;60.040;30.320;2024-01-11T04:06:28;0.95;;;0.63;;
66145;SDS011;52948;60.040;30.320;2024-01-11T04:11:30;0.30;;;0.30;;
66145;SDS011;52948;60.040;30.320;2024-01-11T04:16:32;0.77;;;0.30;;
66145;SDS011;52948;60.040;30.320;2024-01-11T04:21:35;0.30;;;0.30;;
66145;SDS011;52948;60.040;30.320;2024-01-11T04:26:40;0.20;;;0.20;;
66145;SDS011;52948;60.040;30.320;2024-01-11T04:31:42;0.95;;;0.80;;
66145;SDS011;52948;60.040;30.320;2024-01-11T04:36:45;0.17;;;0.17;;
66145;SDS011;52948;60.040;30.320;2024-01-11T04:41:47;0.25;;;0.20;;
66145;SDS011;52948;60.040;30.320;2024-01-11T04:46:57;0.30;;;0.30;;
66145;SDS011;52948;60.040;30.320;2024-01-11T04:52:02;0.20;;;0.20;;
66145;SDS011;52948;60.040;30.320;2024-01-11T04:57:04;0.20;;;0.20;;
66145;SDS011;52948;60.040;30.320;2024-01-11T05:02:08;0.20;;;0.20;;
66145;SDS011;52948;60.040;30.320;2024-01-11T05:07:11;0.30;;;0.30;;
66145;SDS011;52948;60.040;30.320;2024-01-11T05:12:13;0.35;;;0.35;;
66145;SDS011;52948;60.040;30.320;2024-01-11T05:17:15;0.55;;;0.25;;
66145;SDS011;52948;60.040;30.320;2024-01-11T05:22:18;0.22;;;0.22;;
66145;SDS011;52948;60.040;30.320;2024-01-11T05:27:20;0.30;;;0.30;;
66145;SDS011;52948;60.040;30.320;2024-01-11T05:32:23;0.28;;;0.13;;
66145;SDS011;52948;60.040;30.320;2024-01-11T05:37:26;0.17;;;0.17;;
66145;SDS011;52948;60.040;30.320;2024-01-11T05:42:28;0.52;;;0.40;;
66145;SDS011;52948;60.040;30.320;2024-01-11T05:47:30;0.30;;;0.30;;
66145;SDS011;52948;60.040;30.320;2024-01-11T05:52:32;0.40;;;0.40;;
66145;SDS011;52948;60.040;30.320;2024-01-11T05:57:35;2.75;;;1.08;;
66145;SDS011;52948;60.040;30.320;2024-01-11T06:02:38;0.43;;;0.40;;
66145;SDS011;52948;60.040;30.320;2024-01-11T06:07:40;0.43;;;0.43;;
66145;SDS011;52948;60.040;30.320;2024-01-11T06:12:42;1.05;;;0.63;;
66145;SDS011;52948;60.040;30.320;2024-01-11T06:17:45;0.57;;;0.32;;
66145;SDS011;52948;60.040;30.320;2024-01-11T06:22:47;0.55;;;0.50;;
66145;SDS011;52948;60.040;30.320;2024-01-11T06:27:50;1.75;;;0.68;;
66145;SDS011;52948;60.040;30.320;2024-01-11T06:32:52;0.50;;;0.50;;
66145;SDS011;52948;60.040;30.320;2024-01-11T06:37:55;0.82;;;0.45;;
66145;SDS011;52948;60.040;30.320;2024-01-11T06:42:57;0.95;;;0.60;;
66145;SDS011;52948;60.040;30.320;2024-01-11T06:47:59;0.30;;;0.30;;
66145;SDS011;52948;60.040;30.320;2024-01-11T06:53:02;1.15;;;0.55;;
66145;SDS011;52948;60.040;30.320;2024-01-11T06:58:04;0.40;;;0.40;;
66145;SDS011;52948;60.040;30.320;2024-01-11T07:03:07;1.73;;;0.43;;
66145;SDS011;52948;60.040;30.320;2024-01-11T07:08:09;0.20;;;0.20;;
66145;SDS011;52948;60.040;30.320;2024-01-11T07:13:11;0.30;;;0.30;;
66145;SDS011;52948;60.040;30.320;2024-01-11T07:18:16;0.35;;;0.35;;
66145;SDS011;52948;60.040;30.320;2024-01-11T07:23:19;0.43;;;0.43;;
66145;SDS011;52948;60.040;30.320;2024-01-11T07:28:22;1.08;;;0.65;;
66145;SDS011;52948;60.040;30.320;2024-01-11T07:33:27;0.65;;;0.65;;
66145;SDS011;52948;60.040;30.320;2024-01-11T07:38:29;0.77;;;0.40;;
66145;SDS011;52948;60.040;30.320;2024-01-11T07:43:31;1.52;;;0.95;;
66145;SDS011;52948;60.040;30.320;2024-01-11T07:48:37;2.10;;;0.63;;
66145;SDS011;52948;60.040;30.320;2024-01-11T07:53:39;1.10;;;0.77;;
66145;SDS011;52948;60.040;30.320;2024-01-11T07:58:42;0.40;;;0.40;;
66145;SDS011;52948;60.040;30.320;2024-01-11T08:03:45;0.73;;;0.70;;
66145;SDS011;52948;60.040;30.320;2024-01-11T08:08:47;0.50;;;0.50;;
66145;SDS011;52948;60.040;30.320;2024-01-11T08:13:53;0.85;;;0.85;;
66145;SDS011;52948;60.040;30.320;2024-01-11T08:18:56;0.50;;;0.50;;
66145;SDS011;52948;60.040;30.320;2024-01-11T08:23:59;1.10;;;0.70;;
66145;SDS011;52948;60.040;30.320;2024-01-11T08:29:01;1.63;;;0.80;;
66145;SDS011;52948;60.040;30.320;2024-01-11T08:34:04;0.82;;;0.82;;
66145;SDS011;52948;60.040;30.320;2024-01-11T08:39:07;1.15;;;0.80;;
66145;SDS011;52948;60.040;30.320;2024-01-11T08:44:10;0.82;;;0.68;;
66145;SDS011;52948;60.040;30.320;2024-01-11T08:49:12;0.60;;;0.60;;
66145;SDS011;52948;60.040;30.320;2024-01-11T08:54:14;3.35;;;0.75;;
66145;SDS011;52948;60.040;30.320;2024-01-11T08:59:18;1.15;;;1.05;;
66145;SDS011;52948;60.040;30.320;2024-01-11T09:04:24;0.47;;;0.47;;
66145;SDS011;52948;60.040;30.320;2024-01-11T09:09:27;1.17;;;0.85;;
66145;SDS011;52948;60.040;30.320;2024-01-11T09:14:29;1.75;;;0.70;;
66145;SDS011;52948;60.040;30.320;2024-01-11T09:19:32;1.25;;;0.98;;
66145;SDS011;52948;60.040;30.320;2024-01-11T09:24:39;0.73;;;0.60;;
66145;SDS011;52948;60.040;30.320;2024-01-11T09:29:42;0.40;;;0.40;;
66145;SDS011;52948;60.040;30.320;2024-01-11T09:34:46;1.77;;;0.60;;
66145;SDS011;52948;60.040;30.320;2024-01-11T09:39:49;1.38;;;0.82;;
66145;SDS011;52948;60.040;30.320;2024-01-11T09:44:52;1.10;;;0.60;;
66145;SDS011;52948;60.040;30.320;2024-01-11T09:49:56;1.38;;;1.00;;
66145;SDS011;52948;60.040;30.320;2024-01-11T09:55:00;0.40;;;0.40;;
66145;SDS011;52948;60.040;30.320;2024-01-11T10:00:04;0.68;;;0.50;;
66145;SDS011;52948;60.040;30.320;2024-01-11T10:05:14;0.20;;;0.20;;
66145;SDS011;52948;60.040;30.320;2024-01-11T10:10:19;0.32;;;0.32;;
66145;SDS011;52948;60.040;30.320;2024-01-11T10:15:23;0.90;;;0.60;;
66145;SDS011;52948;60.040;30.320;2024-01-11T10:20:27;0.43;;;0.43;;
66145;SDS011;52948;60.040;30.320;2024-01-11T10:25:32;0.40;;;0.40;;
66145;SDS011;52948;60.040;30.320;2024-01-11T10:30:34;0.57;;;0.57;;
66145;SDS011;52948;60.040;30.320;2024-01-11T10:35:38;0.40;;;0.40;;
66145;SDS011;52948;60.040;30.320;2024-01-11T10:40:40;0.30;;;0.30;;
66145;SDS011;52948;60.040;30.320;2024-01-11T10:45:43;1.88;;;0.80;;
66145;SDS011;52948;60.040;30.320;2024-01-11T10:50:48;0.85;;;0.85;;
66145;SDS011;52948;60.040;30.320;2024-01-11T10:55:57;1.00;;;0.70;;
66145;SDS011;52948;60.040;30.320;2024-01-11T11:01:01;1.25;;;0.90;;
66145;SDS011;52948;60.040;30.320;2024-01-11T11:06:04;0.77;;;0.77;;
66145;SDS011;52948;60.040;30.320;2024-01-11T11:11:08;1.38;;;1.02;;
66145;SDS011;52948;60.040;30.320;2024-01-11T11:16:11;3.65;;;1.30;;
66145;SDS011;52948;60.040;30.320;2024-01-11T11:21:13;1.98;;;0.82;;
66145;SDS011;52948;60.040;30.320;2024-01-11T11:26:17;2.13;;;1.08;;
66145;SDS011;52948;60.040;30.320;2024-01-11T11:31:38;1.20;;;0.63;;
66145;SDS011;52948;60.040;30.320;2024-01-11T11:36:44;1.38;;;1.10;;
66145;SDS011;52948;60.040;30.320;2024-01-11T11:41:48;4.82;;;0.90;;
66145;SDS011;52948;60.040;30.320;2024-01-11T11:46:51;1.85;;;1.05;;
66145;SDS011;52948;60.040;30.320;2024-01-11T11:51:55;1.42;;;0.98;;
66145;SDS011;52948;60.040;30.320;2024-01-11T11:56:57;1.13;;;0.60;;
66145;SDS011;52948;60.040;30.320;2024-01-11T12:02:01;1.15;;;0.65;;
66145;SDS011;52948;60.040;30.320;2024-01-11T12:07:04;1.48;;;1.00;;
66145;SDS011;52948;60.040;30.320;2024-01-11T12:12:06;2.15;;;1.05;;
66145;SDS011;52948;60.040;30.320;2024-01-11T12:17:09;2.00;;;0.65;;
66145;SDS011;52948;60.040;30.320;2024-01-11T12:22:12;3.00;;;0.60;;
66145;SDS011;52948;60.040;30.320;2024-01-11T12:27:14;0.90;;;0.68;;
66145;SDS011;52948;60.040;30.320;2024-01-11T12:32:17;2.20;;;0.88;;
66145;SDS011;52948;60.040;30.320;2024-01-11T12:37:20;1.55;;;0.55;;
66145;SDS011;52948;60.040;30.320;2024-01-11T12:42:22;1.38;;;0.60;;
66145;SDS011;52948;60.040;30.320;2024-01-11T12:47:25;0.52;;;0.40;;
66145;SDS011;52948;60.040;30.320;2024-01-11T12:52:27;0.55;;;0.22;;
66145;SDS011;52948;60.040;30.320;2024-01-11T12:57:32;1.17;;;1.08;;
66145;SDS011;52948;60.040;30.320;2024-01-11T13:02:36;0.90;;;0.57;;
66145;SDS011;52948;60.040;30.320;2024-01-11T13:07:40;0.50;;;0.50;;
66145;SDS011;52948;60.040;30.320;2024-01-11T13:12:42;0.40;;;0.40;;
66145;SDS011;52948;60.040;30.320;2024-01-11T13:17:45;1.05;;;0.80;;
66145;SDS011;52948;60.040;30.320;2024-01-11T13:22:49;2.90;;;0.98;;
66145;SDS011;52948;60.040;30.320;2024-01-11T13:27:55;1.20;;;0.50;;
66145;SDS011;52948;60.040;30.320;2024-01-11T13:32:57;1.67;;;0.95;;
66145;SDS011;52948;60.040;30.320;2024-01-11T13:38:03;2.75;;;1.23;;
66145;SDS011;52948;60.040;30.320;2024-01-11T13:43:05;1.42;;;0.70;;
66145;SDS011;52948;60.040;30.320;2024-01-11T13:48:10;1.67;;;1.00;;
66145;SDS011;52948;60.040;30.320;2024-01-11T13:53:13;3.08;;;0.70;;
66145;SDS011;52948;60.040;30.320;2024-01-11T13:58:15;1.10;;;0.85;;
66145;SDS011;52948;60.040;30.320;2024-01-11T14:03:19;0.70;;;0.60;;
66145;SDS011;52948;60.040;30.320;2024-01-11T14:08:22;1.80;;;1.02;;
66145;SDS011;52948;60.040;30.320;2024-01-11T14:13:25;1.17;;;0.52;;
66145;SDS011;52948;60.040;30.320;2024-01-11T14:18:27;0.85;;;0.68;;
66145;SDS011;52948;60.040;30.320;2024-01-11T14:23:30;3.22;;;0.88;;
66145;SDS011;52948;60.040;30.320;2024-01-11T14:28:34;0.70;;;0.60;;
66145;SDS011;52948;60.040;30.320;2024-01-11T14:33:36;0.50;;;0.50;;
66145;SDS011;52948;60.040;30.320;2024-01-11T14:38:39;1.30;;;0.73;;
66145;SDS011;52948;60.040;30.320;2024-01-11T14:43:43;0.55;;;0.43;;
66145;SDS011;52948;60.040;30.320;2024-01-11T14:48:45;1.55;;;0.50;;
66145;SDS011;52948;60.040;30.320;2024-01-11T14:53:47;1.00;;;0.85;;
66145;SDS011;52948;60.040;30.320;2024-01-11T14:58:50;0.45;;;0.30;;
66145;SDS011;52948;60.040;30.320;2024-01-11T15:03:52;0.50;;;0.50;;
66145;SDS011;52948;60.040;30.320;2024-01-11T15:08:55;1.50;;;0.55;;
66145;SDS011;52948;60.040;30.320;2024-01-11T15:13:58;1.48;;;0.82;;
66145;SDS011;52948;60.040;30.320;2024-01-11T15:19:01;1.92;;;1.00;;
66145;SDS011;52948;60.040;30.320;2024-01-11T15:24:03;1.67;;;0.82;;
66145;SDS011;52948;60.040;30.320;2024-01-11T15:29:05;0.75;;;0.70;;
66145;SDS011;52948;60.040;30.320;2024-01-11T15:34:08;0.10;;;0.10;;
66145;SDS011;52948;60.040;30.320;2024-01-11T15:39:10;0.82;;;0.55;;
66145;SDS011;52948;60.040;30.320;2024-01-11T15:44:13;0.98;;;0.85;;
66145;SDS011;52948;60.040;30.320;2024-01-11T15:49:15;0.45;;;0.40;;
66145;SDS011;52948;60.040;30.320;2024-01-11T15:54:17;0.20;;;0.20;;
66145;SDS011;52948;60.040;30.320;2024-01-11T15:59:22;0.40;;;0.40;;
66145;SDS011;52948;60.040;30.320;2024-01-11T16:04:24;0.55;;;0.52;;
66145;SDS011;52948;60.040;30.320;2024-01-11T16:09:30;0.88;;;0.88;;
66145;SDS011;52948;60.040;30.320;2024-01-11T16:14:33;2.40;;;1.15;;
66145;SDS011;52948;60.040;30.320;2024-01-11T16:19:35;1.60;;;0.82;;
66145;SDS011;52948;60.040;30.320;2024-01-11T16:24:38;5.07;;;1.38;;
66145;SDS011;52948;60.040;30.320;2024-01-11T16:29:40;5.40;;;1.70;;
66145;SDS011;52948;60.040;30.320;2024-01-11T16:34:43;1.25;;;0.90;;
66145;SDS011;52948;60.040;30.320;2024-01-11T16:39:45;1.73;;;0.93;;
66145;SDS011;52948;60.040;30.320;2024-01-11T16:44:48;2.92;;;1.35;;
66145;SDS011;52948;60.040;30.320;2024-01-11T16:49:51;2.83;;;1.20;;
66145;SDS011;52948;60.040;30.320;2024-01-11T16:54:53;3.40;;;0.95;;
66145;SDS011;52948;60.040;30.320;2024-01-11T16:59:55;4.60;;;1.35;;
66145;SDS011;52948;60.040;30.320;2024-01-11T17:04:58;2.03;;;1.20;;
66145;SDS011;52948;60.040;30.320;2024-01-11T17:10:00;2.92;;;1.33;;
66145;SDS011;52948;60.040;30.320;2024-01-11T17:15:04;5.28;;;2.00;;
66145;SDS011;52948;60.040;30.320;2024-01-11T17:20:07;5.15;;;1.90;;
66145;SDS011;52948;60.040;30.320;2024-01-11T17:25:11;4.57;;;2.10;;
66145;SDS011;52948;60.040;30.320;2024-01-11T17:30:14;3.65;;;1.52;;
66145;SDS011;52948;60.040;30.320;2024-01-11T17:35:17;3.63;;;1.50;;
66145;SDS011;52948;60.040;30.320;2024-01-11T17:40:19;5.88;;;1.52;;
66145;SDS011;52948;60.040;30.320;2024-01-11T17:45:21;5.18;;;1.30;;
66145;SDS011;52948;60.040;30.320;2024-01-11T17:50:24;1.90;;;1.50;;
66145;SDS011;52948;60.040;30.320;2024-01-11T17:55:26;5.95;;;2.15;;
66145;SDS011;52948;60.040;30.320;2024-01-11T18:00:29;3.00;;;1.52;;
66145;SDS011;52948;60.040;30.320;2024-01-11T18:05:33;1.55;;;1.23;;
66145;SDS011;52948;60.040;30.320;2024-01-11T18:10:37;2.53;;;1.60;;
66145;SDS011;52948;60.040;30.320;2024-01-11T18:15:41;2.40;;;1.30;;
66145;SDS011;52948;60.040;30.320;2024-01-11T18:20:48;5.38;;;2.72;;
66145;SDS011;52948;60.040;30.320;2024-01-11T18:30:55;3.90;;;2.05;;
66145;SDS011;52948;60.040;30.320;2024-01-11T18:35:58;6.65;;;2.55;;
66145;SDS011;52948;60.040;30.320;2024-01-11T18:41:00;5.63;;;2.70;;
66145;SDS011;52948;60.040;30.320;2024-01-11T18:46:04;6.78;;;2.60;;
66145;SDS011;52948;60.040;30.320;2024-01-11T18:51:07;5.30;;;3.13;;
66145;SDS011;52948;60.040;30.320;2024-01-11T18:56:13;8.48;;;3.97;;
66145;SDS011;52948;60.040;30.320;2024-01-11T19:01:17;5.63;;;2.60;;
66145;SDS011;52948;60.040;30.320;2024-01-11T19:06:19;6.00;;;2.50;;
66145;SDS011;52948;60.040;30.320;2024-01-11T19:11:22;7.43;;;2.95;;
66145;SDS011;52948;60.040;30.320;2024-01-11T19:16:27;6.60;;;3.03;;
66145;SDS011;52948;60.040;30.320;2024-01-11T19:21:29;5.78;;;2.40;;
66145;SDS011;52948;60.040;30.320;2024-01-11T19:26:31;5.32;;;2.75;;
66145;SDS011;52948;60.040;30.320;2024-01-11T19:31:34;4.97;;;2.25;;
66145;SDS011;52948;60.040;30.320;2024-01-11T19:36:40;6.07;;;2.50;;
66145;SDS011;52948;60.040;30.320;2024-01-11T19:41:43;4.07;;;2.20;;
66145;SDS011;52948;60.040;30.320;2024-01-11T19:46:45;4.00;;;1.75;;
66145;SDS011;52948;60.040;30.320;2024-01-11T19:51:48;3.33;;;1.70;;
66145;SDS011;52948;60.040;30.320;2024-01-11T19:56:51;4.75;;;1.77;;
66145;SDS011;52948;60.040;30.320;2024-01-11T20:01:54;5.50;;;1.90;;
66145;SDS011;52948;60.040;30.320;2024-01-11T20:06:56;2.33;;;1.70;;
66145;SDS011;52948;60.040;30.320;2024-01-11T20:11:59;3.65;;;2.00;;
66145;SDS011;52948;60.040;30.320;2024-01-11T20:17:06;4.88;;;2.13;;
66145;SDS011;52948;60.040;30.320;2024-01-11T20:22:13;3.33;;;1.90;;
66145;SDS011;52948;60.040;30.320;2024-01-11T20:27:15;4.60;;;1.83;;
66145;SDS011;52948;60.040;30.320;2024-01-11T20:32:18;2.15;;;1.70;;
66145;SDS011;52948;60.040;30.320;2024-01-11T20:37:20;4.13;;;1.77;;
66145;SDS011;52948;60.040;30.320;2024-01-11T20:42:22;2.63;;;2.00;;
66145;SDS011;52948;60.040;30.320;2024-01-11T20:47:25;4.80;;;1.90;;
66145;SDS011;52948;60.040;30.320;2024-01-11T20:52:28;2.58;;;1.45;;
66145;SDS011;52948;60.040;30.320;2024-01-11T20:57:31;4.80;;;1.88;;
66145;SDS011;52948;60.040;30.320;2024-01-11T21:02:34;5.07;;;2.17;;
66145;SDS011;52948;60.040;30.320;2024-01-11T21:07:37;3.35;;;2.00;;
66145;SDS011;52948;60.040;30.320;2024-01-11T21:12:39;4.35;;;1.73;;
66145;SDS011;52948;60.040;30.320;2024-01-11T21:17:42;3.65;;;1.98;;
66145;SDS011;52948;60.040;30.320;2024-01-11T21:22:44;4.38;;;1.98;;
66145;SDS011;52948;60.040;30.320;2024-01-11T21:27:47;3.17;;;2.00;;
66145;SDS011;52948;60.040;30.320;2024-01-11T21:32:49;7.40;;;2.60;;
66145;SDS011;52948;60.040;30.320;2024-01-11T21:37:52;4.95;;;2.50;;
66145;SDS011;52948;60.040;30.320;2024-01-11T21:42:55;3.42;;;2.08;;
66145;SDS011;52948;60.040;30.320;2024-01-11T21:47:57;3.47;;;2.25;;
66145;SDS011;52948;60.040;30.320;2024-01-11T21:53:00;4.05;;;2.05;;
66145;SDS011;52948;60.040;30.320;2024-01-11T21:58:04;6.07;;;2.10;;
66145;SDS011;52948;60.040;30.320;2024-01-11T22:03:06;5.40;;;2.80;;
66145;SDS011;52948;60.040;30.320;2024-01-11T22:08:08;6.38;;;2.30;;
66145;SDS011;52948;60.040;30.320;2024-01-11T22:13:11;7.35;;;2.33;;
66145;SDS011;52948;60.040;30.320;2024-01-11T22:18:14;6.18;;;1.88;;
66145;SDS011;52948;60.040;30.320;2024-01-11T22:23:16;5.70;;;2.38;;
66145;SDS011;52948;60.040;30.320;2024-01-11T22:28:19;6.95;;;2.00;;
66145;SDS011;52948;60.040;30.320;2024-01-11T22:33:21;4.85;;;1.80;;
66145;SDS011;52948;60.040;30.320;2024-01-11T22:38:23;6.43;;;2.10;;
66145;SDS011;52948;60.040;30.320;2024-01-11T22:43:26;5.15;;;1.80;;
66145;SDS011;52948;60.040;30.320;2024-01-11T22:48:29;4.13;;;1.70;;
66145;SDS011;52948;60.040;30.320;2024-01-11T22:53:31;4.00;;;1.65;;
66145;SDS011;52948;60.040;30.320;2024-01-11T22:58:33;4.82;;;2.10;;
66145;SDS011;52948;60.040;30.320;2024-01-11T23:03:36;3.05;;;1.60;;
66145;SDS011;52948;60.040;30.320;2024-01-11T23:08:38;2.25;;;1.25;;
66145;SDS011;52948;60.040;30.320;2024-01-11T23:13:41;3.85;;;1.42;;
66145;SDS011;52948;60.040;30.320;2024-01-11T23:18:44;3.90;;;1.20;;
66145;SDS011;52948;60.040;30.320;2024-01-11T23:23:47;5.05;;;1.50;;
66145;SDS011;52948;60.040;30.320;2024-01-11T23:28:49;3.83;;;1.30;;
66145;SDS011;52948;60.040;30.320;2024-01-11T23:33:52;2.72;;;1.50;;
66145;SDS011;52948;60.040;30.320;2024-01-11T23:38:54;3.33;;;1.40;;
66145;SDS011;52948;60.040;30.320;2024-01-11T23:43:56;4.13;;;1.25;;
66145;SDS011;52948;60.040;30.320;2024-01-11T23:48:59;2.63;;;1.67;;
66145;SDS011;52948;60.040;30.320;2024-01-11T23:54:01;2.40;;;1.50;;
66145;SDS011;52948;60.040;30.320;2024-01-11T23:59:03;5.38;;;1.83;;
